Time;durP1;ratioP1;P1;durP2;ratioP2;P2;SDS_P1;SDS_P2;PMS_P1;PMS_P2;Temp;Humidity;BMP_temperature;BMP_pressure;BME280_temperature;BME280_humidity;BME280_pressure;Samples;Min_cycle;Max_cycle;Signal;HPM_P1;HPM_P2
2023/07/27 00:01:59;;;;;;;19.05;5.00;;;20.20;80.20;;;;;;5043935;28;20025;-56
2023/07/27 00:04:25;;;;;;;15.93;4.53;;;20.20;80.40;;;;;;5046401;28;20025;-56
2023/07/27 00:06:50;;;;;;;14.43;4.03;;;20.10;80.40;;;;;;5039380;28;20026;-57
2023/07/27 00:09:16;;;;;;;13.43;4.30;;;20.20;80.50;;;;;;5035777;28;20037;-56
2023/07/27 00:11:42;;;;;;;17.27;4.20;;;20.10;80.40;;;;;;5045695;28;20052;-56
2023/07/27 00:14:07;;;;;;;13.05;4.55;;;20.10;80.50;;;;;;5046497;28;20112;-56
2023/07/27 00:16:33;;;;;;;16.13;4.43;;;20.00;80.40;;;;;;5045430;28;20037;-57
2023/07/27 00:18:59;;;;;;;10.77;3.58;;;20.00;80.50;;;;;;5045955;28;20034;-56
2023/07/27 00:21:24;;;;;;;12.48;3.83;;;20.00;80.60;;;;;;5047280;28;20014;-56
2023/07/27 00:23:50;;;;;;;12.32;3.80;;;20.00;80.60;;;;;;5029473;28;20032;-56
2023/07/27 00:26:15;;;;;;;16.05;3.72;;;20.00;80.80;;;;;;5047499;28;20025;-56
2023/07/27 00:28:41;;;;;;;12.57;4.50;;;19.90;80.80;;;;;;5047189;28;20068;-56
2023/07/27 00:31:06;;;;;;;10.82;3.58;;;19.90;80.80;;;;;;5047220;28;20045;-56
2023/07/27 00:33:32;;;;;;;10.88;3.63;;;19.90;80.90;;;;;;5046268;28;20034;-56
2023/07/27 00:35:58;;;;;;;12.95;3.53;;;19.80;80.90;;;;;;5047223;28;20029;-56
2023/07/27 00:38:23;;;;;;;9.25;3.60;;;19.80;81.00;;;;;;5045941;28;20041;-51
2023/07/27 00:40:49;;;;;;;8.32;3.28;;;19.80;81.20;;;;;;5047133;28;20025;-51
2023/07/27 00:43:14;;;;;;;8.95;3.25;;;19.70;81.10;;;;;;5045931;28;20030;-52
2023/07/27 00:45:40;;;;;;;9.68;2.97;;;19.70;81.10;;;;;;5045657;28;20029;-51
2023/07/27 00:48:05;;;;;;;8.07;3.30;;;19.70;81.20;;;;;;5029280;28;20021;-51
2023/07/27 00:50:34;;;;;;;8.85;2.95;;;19.70;81.30;;;;;;5028970;28;20071;-51
2023/07/27 00:53:00;;;;;;;19.92;3.55;;;19.70;81.30;;;;;;5045493;28;20037;-51
2023/07/27 00:55:25;;;;;;;9.13;2.78;;;19.60;81.30;;;;;;5046299;28;20026;-51
2023/07/27 00:57:51;;;;;;;10.85;3.20;;;19.60;81.30;;;;;;5045284;28;20037;-51
2023/07/27 01:00:17;;;;;;;5.45;2.90;;;19.60;81.30;;;;;;5029229;28;20025;-51
2023/07/27 01:02:42;;;;;;;10.73;2.85;;;19.60;81.30;;;;;;5028883;28;20087;-52
2023/07/27 01:05:08;;;;;;;12.18;2.72;;;19.50;81.30;;;;;;5046639;28;20017;-51
2023/07/27 01:07:34;;;;;;;8.18;2.60;;;19.50;82.10;;;;;;5045280;28;20025;-52
2023/07/27 01:09:59;;;;;;;10.07;2.85;;;19.50;81.50;;;;;;5045274;28;20112;-51
2023/07/27 01:12:34;;;;;;;8.88;3.05;;;19.50;81.50;;;;;;5045371;28;20033;-51
2023/07/27 01:15:01;;;;;;;11.93;3.07;;;19.50;81.60;;;;;;5029335;28;20037;-51
2023/07/27 01:17:58;;;;;;;6.20;2.90;;;19.40;81.60;;;;;;5045047;28;20037;-51
2023/07/27 01:20:46;;;;;;;9.30;2.47;;;19.40;81.60;;;;;;5026744;28;20050;-52
2023/07/27 01:23:35;;;;;;;7.30;2.88;;;19.40;81.80;;;;;;5045312;28;20056;-51
2023/07/27 01:26:19;;;;;;;5.22;2.38;;;19.30;81.80;;;;;;5045045;28;20085;-51
2023/07/27 01:29:19;;;;;;;9.30;2.65;;;19.30;81.90;;;;;;5045052;28;20025;-51
2023/07/27 01:31:45;;;;;;;7.32;2.42;;;19.30;82.00;;;;;;5028367;28;20029;-52
2023/07/27 01:34:22;;;;;;;7.10;2.33;;;19.30;82.00;;;;;;5028511;28;20089;-51
2023/07/27 01:36:52;;;;;;;4.40;2.47;;;19.20;81.90;;;;;;5028730;28;21527;-51
2023/07/27 01:39:17;;;;;;;6.20;2.50;;;19.20;82.00;;;;;;5040585;28;20037;-52
2023/07/27 01:41:43;;;;;;;6.75;2.70;;;19.20;82.20;;;;;;5044645;28;20433;-52
2023/07/27 01:44:09;;;;;;;5.38;2.40;;;19.20;82.20;;;;;;5032177;28;20026;-52
2023/07/27 01:46:35;;;;;;;4.93;2.22;;;19.20;82.20;;;;;;5044876;28;20442;-52
2023/07/27 01:49:00;;;;;;;3.55;2.15;;;19.20;82.10;;;;;;5044402;28;20040;-52
2023/07/27 01:51:26;;;;;;;4.00;2.00;;;19.10;82.10;;;;;;5044477;28;20108;-51
2023/07/27 01:53:52;;;;;;;4.82;2.13;;;19.10;82.20;;;;;;5044838;28;20413;-52
2023/07/27 01:56:17;;;;;;;4.30;2.15;;;19.10;82.30;;;;;;5044741;28;20029;-51
2023/07/27 01:58:43;;;;;;;4.13;2.03;;;19.10;82.40;;;;;;5044835;28;20511;-52
2023/07/27 02:01:08;;;;;;;8.48;2.35;;;19.00;82.40;;;;;;5028129;28;20116;-52
2023/07/27 02:03:34;;;;;;;6.38;2.40;;;19.00;83.20;;;;;;5044792;28;20033;-52
2023/07/27 02:06:00;;;;;;;5.75;2.25;;;19.00;82.60;;;;;;5044665;28;20022;-52
2023/07/27 02:08:26;;;;;;;6.43;2.17;;;19.00;82.70;;;;;;5048835;28;20048;-52
2023/07/27 02:10:55;;;;;;;5.18;1.95;;;19.00;82.80;;;;;;5048590;28;20420;-52
2023/07/27 02:13:26;;;;;;;6.35;2.03;;;18.90;82.80;;;;;;5048723;28;20026;-52
2023/07/27 02:15:57;;;;;;;5.30;2.00;;;18.90;82.90;;;;;;5048544;28;20056;-52
2023/07/27 02:18:23;;;;;;;5.72;2.28;;;18.90;82.90;;;;;;5031930;28;20059;-52
2023/07/27 02:20:49;;;;;;;2.60;1.80;;;18.90;83.00;;;;;;5048655;28;20017;-52
2023/07/27 02:23:14;;;;;;;5.20;2.10;;;18.80;83.00;;;;;;5048810;28;20049;-52
2023/07/27 02:25:40;;;;;;;5.43;2.05;;;18.90;83.00;;;;;;5048492;28;20022;-51
2023/07/27 02:28:08;;;;;;;6.07;2.17;;;18.80;82.90;;;;;;5048762;28;20473;-52
2023/07/27 02:30:33;;;;;;;3.10;1.83;;;18.80;83.10;;;;;;5048733;28;20037;-52
2023/07/27 02:32:59;;;;;;;3.33;2.13;;;18.80;83.00;;;;;;5049583;28;20035;-52
2023/07/27 02:35:24;;;;;;;3.47;2.00;;;18.80;83.10;;;;;;5049556;28;20052;-52
2023/07/27 02:37:50;;;;;;;7.80;1.85;;;18.70;83.10;;;;;;5048127;28;20022;-52
2023/07/27 02:40:15;;;;;;;2.33;1.80;;;18.80;83.30;;;;;;5049335;28;20037;-52
2023/07/27 02:42:41;;;;;;;3.60;1.88;;;18.70;83.30;;;;;;5049442;28;20377;-52
2023/07/27 02:45:07;;;;;;;4.97;2.20;;;18.70;83.30;;;;;;5049400;28;20036;-52
2023/07/27 02:47:32;;;;;;;3.92;2.10;;;18.70;83.30;;;;;;5049284;28;20353;-52
2023/07/27 02:49:58;;;;;;;4.28;2.08;;;18.70;83.40;;;;;;5047733;28;20037;-52
2023/07/27 02:52:23;;;;;;;4.68;2.50;;;18.70;83.40;;;;;;5049213;28;20052;-52
2023/07/27 02:54:49;;;;;;;4.35;2.70;;;18.70;83.50;;;;;;5047873;28;20038;-52
2023/07/27 02:57:15;;;;;;;3.60;2.55;;;18.70;83.50;;;;;;5047776;28;20111;-51
2023/07/27 02:59:40;;;;;;;3.65;2.65;;;18.60;83.50;;;;;;5049003;28;20073;-52
2023/07/27 03:02:06;;;;;;;6.57;2.53;;;18.60;83.50;;;;;;5048956;28;20028;-52
2023/07/27 03:04:31;;;;;;;4.15;2.50;;;18.60;83.60;;;;;;5047659;28;20025;-52
2023/07/27 03:06:57;;;;;;;8.70;2.67;;;18.60;83.80;;;;;;5047577;28;20022;-52
2023/07/27 03:09:22;;;;;;;5.15;2.30;;;18.60;83.80;;;;;;5048667;28;20124;-52
2023/07/27 03:11:49;;;;;;;3.58;2.53;;;18.60;83.90;;;;;;5047363;28;20079;-52
2023/07/27 03:14:15;;;;;;;3.78;2.53;;;18.60;83.80;;;;;;5047418;28;20032;-52
2023/07/27 03:16:40;;;;;;;3.28;2.30;;;18.50;83.90;;;;;;5047175;28;20048;-52
2023/07/27 03:19:06;;;;;;;3.38;1.95;;;18.60;84.00;;;;;;5047612;28;20068;-52
2023/07/27 03:21:31;;;;;;;3.60;2.30;;;18.60;84.00;;;;;;5048516;28;20036;-52
2023/07/27 03:23:57;;;;;;;5.25;2.47;;;18.50;84.00;;;;;;5048594;28;20044;-52
2023/07/27 03:26:22;;;;;;;3.17;2.33;;;18.50;84.20;;;;;;5048513;28;20520;-52
2023/07/27 03:28:48;;;;;;;5.13;3.28;;;18.50;84.20;;;;;;5048438;28;20093;-52
2023/07/27 03:31:18;;;;;;;4.07;3.33;;;18.50;84.30;;;;;;5047229;28;20034;-52
2023/07/27 03:33:43;;;;;;;8.88;4.20;;;18.50;84.50;;;;;;5046862;28;20033;-52
2023/07/27 03:36:09;;;;;;;47.38;7.30;;;18.50;84.50;;;;;;5046095;28;20025;-51
2023/07/27 03:38:35;;;;;;;63.97;9.95;;;18.50;84.60;;;;;;5027400;28;20029;-52
2023/07/27 03:41:01;;;;;;;46.80;7.30;;;18.50;84.50;;;;;;5027214;28;20053;-51
2023/07/27 03:43:27;;;;;;;41.55;6.85;;;18.50;84.40;;;;;;5044715;28;20026;-52
2023/07/27 03:45:55;;;;;;;37.20;6.97;;;18.50;84.50;;;;;;5046383;28;20037;-52
2023/07/27 03:48:21;;;;;;;26.80;5.30;;;18.50;84.70;;;;;;5046889;28;20049;-51
2023/07/27 03:50:46;;;;;;;27.75;5.97;;;18.50;84.70;;;;;;5046876;28;20068;-52
2023/07/27 03:53:12;;;;;;;19.60;5.40;;;18.50;84.70;;;;;;5047010;28;20489;-52
2023/07/27 03:55:37;;;;;;;25.10;5.47;;;18.50;84.70;;;;;;5030122;28;20092;-52
2023/07/27 03:58:03;;;;;;;32.17;6.05;;;18.50;85.00;;;;;;5048065;28;20052;-53
2023/07/27 04:00:28;;;;;;;28.88;5.70;;;18.40;85.00;;;;;;5048063;28;20029;-52
2023/07/27 04:02:54;;;;;;;27.13;5.38;;;18.40;85.00;;;;;;5047958;28;20025;-52
2023/07/27 04:05:19;;;;;;;20.25;5.90;;;18.40;85.10;;;;;;5046827;28;20025;-56
2023/07/27 04:07:49;;;;;;;18.42;5.50;;;18.40;85.10;;;;;;5046139;28;20048;-57
2023/07/27 04:10:15;;;;;;;15.20;5.43;;;18.40;85.10;;;;;;5047331;28;20041;-56
2023/07/27 04:12:40;;;;;;;22.92;4.97;;;18.40;85.00;;;;;;5046881;28;20222;-57
2023/07/27 04:15:06;;;;;;;37.40;6.90;;;18.40;85.00;;;;;;5047582;28;20040;-56
2023/07/27 04:17:32;;;;;;;24.17;5.38;;;18.40;85.10;;;;;;5047884;28;20033;-56
2023/07/27 04:19:57;;;;;;;24.20;5.13;;;18.40;85.10;;;;;;5047137;28;20068;-56
2023/07/27 04:22:23;;;;;;;19.90;5.03;;;18.40;85.10;;;;;;5047152;28;20473;-56
2023/07/27 04:24:49;;;;;;;26.15;4.53;;;18.40;85.10;;;;;;5047476;28;20156;-56
2023/07/27 04:27:15;;;;;;;17.00;4.88;;;18.40;85.10;;;;;;5029663;28;20033;-56
2023/07/27 04:29:40;;;;;;;15.88;5.05;;;18.40;85.20;;;;;;5046234;28;20033;-57
2023/07/27 04:32:07;;;;;;;27.95;4.95;;;18.40;85.20;;;;;;5047031;28;20068;-56
2023/07/27 04:34:32;;;;;;;15.30;4.35;;;18.40;85.30;;;;;;5045982;28;20030;-57
2023/07/27 04:36:58;;;;;;;13.43;4.35;;;18.40;85.30;;;;;;5047309;28;20377;-56
2023/07/27 04:39:23;;;;;;;13.15;4.22;;;18.40;85.40;;;;;;5047083;28;20037;-57
2023/07/27 04:41:49;;;;;;;16.40;4.60;;;18.40;85.40;;;;;;5047191;28;20026;-56
2023/07/27 04:44:14;;;;;;;14.90;4.15;;;18.40;85.60;;;;;;5045753;28;20136;-57
2023/07/27 04:46:40;;;;;;;17.33;4.50;;;18.40;85.80;;;;;;5047075;28;20094;-57
2023/07/27 04:49:06;;;;;;;19.50;4.63;;;18.30;86.00;;;;;;5047014;28;20041;-57
2023/07/27 04:51:33;;;;;;;21.25;4.13;;;18.30;86.10;;;;;;5045510;28;20033;-56
2023/07/27 04:53:58;;;;;;;15.90;4.25;;;18.30;86.10;;;;;;5045624;28;20029;-57
2023/07/27 04:56:24;;;;;;;17.55;3.85;;;18.30;86.10;;;;;;5045370;28;20112;-52
2023/07/27 04:58:49;;;;;;;22.73;5.07;;;18.30;86.20;;;;;;5045482;28;20033;-54
2023/07/27 05:01:15;;;;;;;18.50;4.38;;;18.30;86.20;;;;;;5046410;28;20026;-52
2023/07/27 05:03:41;;;;;;;18.48;4.45;;;18.30;86.20;;;;;;5046610;28;20144;-52
2023/07/27 05:06:06;;;;;;;19.08;4.00;;;18.30;86.30;;;;;;5028385;28;20028;-52
2023/07/27 05:08:32;;;;;;;16.88;5.18;;;18.30;86.40;;;;;;5045303;28;20035;-52
2023/07/27 05:10:58;;;;;;;24.08;4.68;;;18.30;86.40;;;;;;5045283;28;20021;-52
2023/07/27 05:13:23;;;;;;;23.48;4.75;;;18.30;86.50;;;;;;5045406;28;20053;-52
2023/07/27 05:15:49;;;;;;;22.65;4.53;;;18.30;86.40;;;;;;5044896;28;20140;-53
2023/07/27 05:18:14;;;;;;;23.90;3.90;;;18.40;86.50;;;;;;5046030;28;20034;-52
2023/07/27 05:20:40;;;;;;;19.50;4.60;;;18.20;86.40;;;;;;5028521;28;20053;-52
2023/07/27 05:23:05;;;;;;;23.98;4.60;;;18.20;86.40;;;;;;5046103;28;20041;-52
2023/07/27 05:25:31;;;;;;;72.65;10.43;;;18.30;86.40;;;;;;5044861;28;20484;-52
2023/07/27 05:27:56;;;;;;;86.95;10.98;;;18.30;86.40;;;;;;5044841;28;20033;-52
2023/07/27 05:30:22;;;;;;;92.30;12.00;;;18.30;86.40;;;;;;5046135;28;20034;-52
2023/07/27 05:32:48;;;;;;;64.15;11.38;;;18.30;86.40;;;;;;5046364;28;20036;-52
2023/07/27 05:35:13;;;;;;;62.35;9.70;;;18.30;86.40;;;;;;5057913;28;20037;-53
2023/07/27 05:37:40;;;;;;;73.65;8.77;;;18.30;86.40;;;;;;5043333;28;20057;-52
2023/07/27 05:40:07;;;;;;;60.38;8.98;;;18.30;86.40;;;;;;5031109;28;20029;-52
2023/07/27 05:42:33;;;;;;;62.78;8.85;;;18.30;86.40;;;;;;5044392;28;20029;-52
2023/07/27 05:44:58;;;;;;;48.28;7.88;;;18.30;86.50;;;;;;5044824;28;20105;-52
2023/07/27 05:47:24;;;;;;;48.67;8.50;;;18.20;86.50;;;;;;5044722;28;20030;-52
2023/07/27 05:49:49;;;;;;;47.17;7.35;;;18.30;86.50;;;;;;5044580;28;20040;-52
2023/07/27 05:52:15;;;;;;;52.45;8.07;;;18.30;86.60;;;;;;5045523;28;20037;-52
2023/07/27 05:54:40;;;;;;;33.83;6.72;;;18.30;86.50;;;;;;5046013;28;20041;-52
2023/07/27 05:57:06;;;;;;;43.05;6.45;;;18.30;86.30;;;;;;5045905;28;20032;-52
2023/07/27 05:59:31;;;;;;;32.05;6.03;;;18.40;86.60;;;;;;5039304;28;20030;-52
2023/07/27 06:01:57;;;;;;;32.22;6.55;;;18.30;86.60;;;;;;5036333;28;20028;-52
2023/07/27 06:04:23;;;;;;;23.63;5.28;;;18.30;86.60;;;;;;5034292;28;20056;-52
2023/07/27 06:06:49;;;;;;;28.98;5.70;;;18.30;86.80;;;;;;5044813;28;20032;-52
2023/07/27 06:09:14;;;;;;;26.52;4.85;;;18.30;86.80;;;;;;5045557;28;20113;-52
2023/07/27 06:11:40;;;;;;;28.88;5.88;;;18.40;87.10;;;;;;5045120;28;20033;-52
2023/07/27 06:14:06;;;;;;;31.63;5.63;;;18.40;87.00;;;;;;5024323;28;20605;-53
2023/07/27 06:16:32;;;;;;;24.83;5.28;;;18.30;86.60;;;;;;5036783;28;20033;-52
2023/07/27 06:18:57;;;;;;;21.48;4.63;;;18.30;86.50;;;;;;5043321;28;20037;-52
2023/07/27 06:21:23;;;;;;;16.48;4.20;;;18.30;86.50;;;;;;5039634;28;20079;-52
2023/07/27 06:23:48;;;;;;;16.40;4.72;;;18.30;86.60;;;;;;5043784;28;20022;-53
2023/07/27 06:26:14;;;;;;;17.63;4.80;;;18.30;86.90;;;;;;5040709;28;20093;-52
2023/07/27 06:28:39;;;;;;;20.48;4.03;;;18.30;86.80;;;;;;5043994;28;20104;-52
2023/07/27 06:31:05;;;;;;;23.45;4.60;;;18.30;86.70;;;;;;5044556;28;20033;-52
2023/07/27 06:33:31;;;;;;;25.27;4.70;;;18.40;86.60;;;;;;5044590;28;20056;-52
2023/07/27 06:35:57;;;;;;;15.40;3.58;;;18.40;86.60;;;;;;5045427;28;20028;-52
2023/07/27 06:38:22;;;;;;;13.07;3.58;;;18.30;87.20;;;;;;5045109;28;20547;-52
2023/07/27 06:40:48;;;;;;;27.67;4.70;;;18.30;86.50;;;;;;5027243;28;20026;-52
2023/07/27 06:43:13;;;;;;;15.02;3.90;;;18.40;87.20;;;;;;5026120;28;20076;-52
2023/07/27 06:45:39;;;;;;;22.50;4.32;;;18.40;87.50;;;;;;5044796;28;20465;-52
2023/07/27 06:48:05;;;;;;;24.08;4.88;;;18.40;87.50;;;;;;5044058;28;20060;-52
2023/07/27 06:50:31;;;;;;;26.17;4.93;;;18.40;87.50;;;;;;5011039;28;20041;-52
2023/07/27 06:52:56;;;;;;;23.60;4.53;;;18.40;87.60;;;;;;5044295;28;20022;-52
2023/07/27 06:55:22;;;;;;;27.23;5.50;;;18.40;87.60;;;;;;5046549;28;20045;-52
2023/07/27 06:57:47;;;;;;;36.58;6.35;;;18.40;87.70;;;;;;5047617;28;20033;-52
2023/07/27 07:00:13;;;;;;;45.53;5.78;;;18.50;87.80;;;;;;5047318;28;20033;-52
2023/07/27 07:02:39;;;;;;;22.38;4.72;;;18.50;87.80;;;;;;5047587;28;20025;-52
2023/07/27 07:05:05;;;;;;;25.45;5.03;;;18.50;87.60;;;;;;5047445;28;20298;-52
2023/07/27 07:07:30;;;;;;;23.23;4.88;;;18.50;87.30;;;;;;5047527;28;20022;-52
2023/07/27 07:09:56;;;;;;;33.13;7.07;;;18.50;87.10;;;;;;5030935;28;20033;-52
2023/07/27 07:12:22;;;;;;;32.55;5.43;;;18.50;87.00;;;;;;5048546;28;20108;-52
2023/07/27 07:14:47;;;;;;;19.98;6.07;;;18.50;86.80;;;;;;5047369;28;20029;-52
2023/07/27 07:17:13;;;;;;;37.95;6.45;;;18.60;86.80;;;;;;5048050;28;20052;-52
2023/07/27 07:19:38;;;;;;;38.25;5.80;;;18.60;86.70;;;;;;5050115;28;20033;-52
2023/07/27 07:22:04;;;;;;;39.03;6.68;;;18.60;86.50;;;;;;5043527;28;20057;-53
2023/07/27 07:24:30;;;;;;;29.50;6.22;;;18.60;86.50;;;;;;5045726;28;20037;-52
2023/07/27 07:26:55;;;;;;;28.10;5.82;;;18.60;86.20;;;;;;5046638;28;20018;-52
2023/07/27 07:29:21;;;;;;;35.95;6.63;;;18.70;86.10;;;;;;5046811;28;20035;-52
2023/07/27 07:31:47;;;;;;;34.95;6.30;;;18.70;86.00;;;;;;5047834;28;20037;-52
2023/07/27 07:34:13;;;;;;;38.53;6.47;;;18.70;85.90;;;;;;5040471;28;20037;-53
2023/07/27 07:36:38;;;;;;;47.08;7.63;;;18.80;85.90;;;;;;5040278;28;20034;-52
2023/07/27 07:39:04;;;;;;;46.00;6.97;;;18.70;85.90;;;;;;5035721;28;20052;-52
2023/07/27 07:41:29;;;;;;;33.47;7.25;;;18.80;85.80;;;;;;5033761;28;20088;-52
2023/07/27 07:43:55;;;;;;;37.95;6.97;;;18.80;85.70;;;;;;5010652;28;20041;-52
2023/07/27 07:46:21;;;;;;;43.38;7.90;;;18.90;85.50;;;;;;5027089;28;20057;-52
2023/07/27 07:48:47;;;;;;;50.55;7.28;;;18.90;85.50;;;;;;5033926;28;20053;-52
2023/07/27 07:51:14;;;;;;;42.60;6.90;;;18.90;85.30;;;;;;5046610;28;20021;-52
2023/07/27 07:53:39;;;;;;;45.60;6.97;;;18.90;85.20;;;;;;5029990;28;20029;-53
2023/07/27 07:56:10;;;;;;;39.97;6.47;;;19.00;85.10;;;;;;5047343;28;20037;-52
2023/07/27 07:58:36;;;;;;;30.60;6.55;;;19.00;84.90;;;;;;5046164;28;20365;-52
2023/07/27 08:01:02;;;;;;;36.17;6.80;;;19.10;84.80;;;;;;5047715;28;20045;-52
2023/07/27 08:03:27;;;;;;;35.38;6.32;;;19.00;84.60;;;;;;5047531;28;20092;-52
2023/07/27 08:05:53;;;;;;;42.78;7.05;;;19.10;84.60;;;;;;5047156;28;20021;-52
2023/07/27 08:08:18;;;;;;;22.13;5.30;;;19.10;84.50;;;;;;5046380;28;20029;-52
2023/07/27 08:10:44;;;;;;;27.80;5.55;;;19.10;84.10;;;;;;5047401;28;20108;-52
2023/07/27 08:13:09;;;;;;;23.98;5.18;;;19.20;83.80;;;;;;5047619;28;20029;-52
2023/07/27 08:15:35;;;;;;;36.67;5.22;;;19.20;83.60;;;;;;5046171;28;20030;-52
2023/07/27 08:18:01;;;;;;;31.05;5.75;;;19.20;84.10;;;;;;5047171;28;20025;-52
2023/07/27 08:20:26;;;;;;;30.83;5.72;;;19.20;83.60;;;;;;5047096;28;20056;-53
2023/07/27 08:22:52;;;;;;;29.70;5.75;;;19.30;83.70;;;;;;5046163;28;20025;-52
2023/07/27 08:25:17;;;;;;;35.95;5.90;;;19.30;83.50;;;;;;5045846;28;20029;-52
2023/07/27 08:27:43;;;;;;;42.20;6.80;;;19.30;83.40;;;;;;5045821;28;20026;-52
2023/07/27 08:30:09;;;;;;;25.50;5.70;;;19.30;83.30;;;;;;5047030;28;20036;-53
2023/07/27 08:32:34;;;;;;;37.47;7.95;;;19.40;83.30;;;;;;5046943;28;20026;-53
2023/07/27 08:35:00;;;;;;;46.53;7.60;;;19.40;83.30;;;;;;5047532;28;20037;-52
2023/07/27 08:37:26;;;;;;;44.83;7.35;;;19.40;83.30;;;;;;5045983;28;20033;-52
2023/07/27 08:39:51;;;;;;;33.00;7.03;;;19.40;83.30;;;;;;5045729;28;20064;-52
2023/07/27 08:42:17;;;;;;;42.13;7.82;;;19.50;83.10;;;;;;5046751;28;20057;-52
2023/07/27 08:44:46;;;;;;;43.28;7.97;;;19.50;83.00;;;;;;5045856;28;20029;-52
2023/07/27 08:47:12;;;;;;;43.75;6.65;;;19.50;82.30;;;;;;5045360;28;20025;-52
2023/07/27 08:49:37;;;;;;;45.47;7.70;;;19.50;82.20;;;;;;5045704;28;20025;-52
2023/07/27 08:52:03;;;;;;;33.45;6.43;;;19.60;82.10;;;;;;5044209;28;20089;-52
2023/07/27 08:54:29;;;;;;;43.78;7.20;;;19.60;82.00;;;;;;5043816;28;20490;-52
2023/07/27 08:56:55;;;;;;;41.30;6.75;;;19.60;82.10;;;;;;5045248;28;20057;-52
2023/07/27 08:59:20;;;;;;;40.67;6.93;;;19.70;82.00;;;;;;5025282;28;20046;-52
2023/07/27 09:01:46;;;;;;;60.38;7.63;;;19.70;81.90;;;;;;5025517;28;20034;-52
2023/07/27 09:04:12;;;;;;;53.03;7.82;;;19.80;81.70;;;;;;5025311;28;20022;-52
2023/07/27 09:06:43;;;;;;;50.88;7.80;;;19.80;81.60;;;;;;5026637;28;20021;-52
2023/07/27 09:09:21;;;;;;;44.25;8.35;;;19.90;81.40;;;;;;5025426;28;20061;-52
2023/07/27 09:11:46;;;;;;;50.38;8.50;;;20.00;81.20;;;;;;5026564;28;20149;-52
2023/07/27 09:14:19;;;;;;;50.53;8.93;;;20.00;81.00;;;;;;5025467;28;20026;-53
2023/07/27 09:16:45;;;;;;;58.35;10.35;;;20.00;80.90;;;;;;5008287;28;20044;-52
2023/07/27 09:19:11;;;;;;;66.75;10.25;;;20.10;80.70;;;;;;5025137;28;20085;-52
2023/07/27 09:21:40;;;;;;;81.05;10.88;;;20.10;80.60;;;;;;5025221;28;20029;-52
2023/07/27 09:24:09;;;;;;;62.22;10.02;;;20.10;80.50;;;;;;5032309;28;20057;-52
2023/07/27 09:26:35;;;;;;;74.43;9.75;;;20.10;80.60;;;;;;5045305;28;20033;-52
2023/07/27 09:29:04;;;;;;;56.45;9.35;;;20.10;80.50;;;;;;5045005;28;20033;-52
2023/07/27 09:31:35;;;;;;;73.00;10.00;;;20.20;80.40;;;;;;5044921;28;20033;-52
2023/07/27 09:34:03;;;;;;;58.92;11.02;;;20.20;80.40;;;;;;5045021;28;20036;-52
2023/07/27 09:36:29;;;;;;;95.63;12.27;;;20.30;80.30;;;;;;5027371;28;20105;-52
2023/07/27 09:38:55;;;;;;;69.82;11.02;;;20.40;80.30;;;;;;5043780;28;20038;-52
2023/07/27 09:41:20;;;;;;;74.43;11.48;;;20.40;80.20;;;;;;5029098;28;20030;-52
2023/07/27 09:43:46;;;;;;;72.38;11.85;;;20.40;79.90;;;;;;5018449;28;20045;-52
2023/07/27 09:46:11;;;;;;;65.55;11.43;;;20.50;79.80;;;;;;5061094;28;20018;-52
2023/07/27 09:48:37;;;;;;;78.63;11.32;;;20.50;79.70;;;;;;5059997;28;20037;-52
2023/07/27 09:51:03;;;;;;;84.82;12.68;;;20.60;79.50;;;;;;5043828;28;20048;-52
2023/07/27 09:53:32;;;;;;;86.53;12.15;;;20.60;79.20;;;;;;5016747;28;20045;-53
2023/07/27 09:55:58;;;;;;;65.90;11.52;;;20.70;79.20;;;;;;5043069;28;20029;-53
2023/07/27 09:58:23;;;;;;;62.08;10.95;;;20.70;79.00;;;;;;5064727;28;20034;-52
2023/07/27 10:00:49;;;;;;;89.47;11.02;;;20.70;79.00;;;;;;5058167;28;20021;-52
2023/07/27 10:03:14;;;;;;;65.60;11.35;;;20.90;79.10;;;;;;5045141;28;20026;-52
2023/07/27 10:05:40;;;;;;;62.72;9.60;;;20.90;78.50;;;;;;5041807;28;20026;-52
2023/07/27 10:08:06;;;;;;;52.70;8.38;;;20.90;78.10;;;;;;5038402;28;20029;-52
2023/07/27 10:10:39;;;;;;;36.10;7.82;;;21.00;77.90;;;;;;5043561;28;20377;-52
2023/07/27 10:13:25;;;;;;;87.28;9.93;;;21.00;77.80;;;;;;5042885;28;20040;-52
2023/07/27 10:15:55;;;;;;;60.53;8.85;;;21.10;77.70;;;;;;5035323;28;20060;-52
2023/07/27 10:18:25;;;;;;;58.20;9.02;;;21.10;77.80;;;;;;5040335;28;20038;-52
2023/07/27 10:20:51;;;;;;;59.38;10.27;;;21.20;77.70;;;;;;5042118;28;20074;-52
2023/07/27 10:23:18;;;;;;;39.85;7.50;;;21.20;77.60;;;;;;5044737;28;20080;-52
2023/07/27 10:26:04;;;;;;;41.92;7.30;;;21.30;77.50;;;;;;5065501;28;20093;-52
2023/07/27 10:28:40;;;;;;;55.85;8.75;;;21.30;77.40;;;;;;5030350;28;20076;-52
2023/07/27 10:31:23;;;;;;;61.90;8.70;;;21.30;77.50;;;;;;5044081;28;20025;-52
2023/07/27 10:34:07;;;;;;;65.32;8.80;;;21.40;77.50;;;;;;5053817;28;20111;-52
2023/07/27 10:36:57;;;;;;;60.35;8.80;;;21.50;77.60;;;;;;5032288;28;20029;-52
2023/07/27 10:39:41;;;;;;;40.88;7.32;;;21.60;77.50;;;;;;5039381;28;20030;-52
2023/07/27 10:42:08;;;;;;;47.65;7.35;;;21.70;77.00;;;;;;5072856;28;20032;-52
2023/07/27 10:44:43;;;;;;;53.17;7.05;;;21.70;76.30;;;;;;5024610;28;20045;-52
2023/07/27 10:47:10;;;;;;;63.95;7.25;;;21.80;75.60;;;;;;5025244;28;20071;-52
2023/07/27 10:49:48;;;;;;;65.35;8.68;;;21.80;75.00;;;;;;5038097;28;20033;-52
2023/07/27 10:52:18;;;;;;;55.40;8.10;;;21.90;74.90;;;;;;5044795;28;20037;-52
2023/07/27 10:54:44;;;;;;;66.35;10.18;;;21.90;74.00;;;;;;5029292;28;20030;-52
2023/07/27 10:57:11;;;;;;;75.50;8.45;;;22.00;73.90;;;;;;5040470;28;20041;-52
2023/07/27 10:59:38;;;;;;;63.60;8.68;;;22.10;73.60;;;;;;5012766;28;20029;-52
2023/07/27 11:02:10;;;;;;;58.70;8.75;;;22.10;72.90;;;;;;5046423;28;20028;-52
2023/07/27 11:04:36;;;;;;;56.35;7.20;;;22.10;73.00;;;;;;5076591;28;20022;-52
2023/07/27 11:07:01;;;;;;;71.95;9.20;;;22.20;72.90;;;;;;5046651;28;20026;-52
2023/07/27 11:09:27;;;;;;;98.22;12.02;;;22.20;73.00;;;;;;5045586;28;20470;-52
2023/07/27 11:11:52;;;;;;;64.30;8.75;;;22.20;72.90;;;;;;5047992;28;20026;-51
2023/07/27 11:14:18;;;;;;;61.67;9.20;;;22.30;72.70;;;;;;5028873;28;20041;-52
2023/07/27 11:16:43;;;;;;;63.47;7.88;;;22.30;72.60;;;;;;5041764;28;20079;-52
2023/07/27 11:19:09;;;;;;;54.33;8.32;;;22.40;72.50;;;;;;5034470;28;20029;-52
2023/07/27 11:21:40;;;;;;;53.67;7.82;;;22.40;72.40;;;;;;5036555;28;20036;-52
2023/07/27 11:24:06;;;;;;;52.85;6.97;;;22.40;72.20;;;;;;5046340;28;20053;-52
2023/07/27 11:26:32;;;;;;;63.80;7.38;;;22.50;72.10;;;;;;5046784;28;20071;-51
2023/07/27 11:28:57;;;;;;;59.25;9.25;;;22.50;72.20;;;;;;5045519;28;20072;-52
2023/07/27 11:31:23;;;;;;;51.55;7.97;;;22.50;72.20;;;;;;5009386;28;20022;-52
2023/07/27 11:33:49;;;;;;;57.13;8.65;;;22.60;72.20;;;;;;5046520;28;20177;-51
2023/07/27 11:36:14;;;;;;;72.07;8.20;;;22.60;72.30;;;;;;5029834;28;20040;-51
2023/07/27 11:38:40;;;;;;;89.75;10.40;;;22.50;72.10;;;;;;5046673;28;20112;-51
2023/07/27 11:41:06;;;;;;;105.13;12.20;;;22.70;72.20;;;;;;5029371;28;20073;-51
2023/07/27 11:43:31;;;;;;;86.82;10.95;;;22.80;72.50;;;;;;5047940;28;20045;-52
2023/07/27 11:45:57;;;;;;;74.90;9.93;;;22.90;72.40;;;;;;5030057;28;20014;-51
2023/07/27 11:48:27;;;;;;;84.30;9.68;;;22.90;72.30;;;;;;5044566;28;20052;-51
2023/07/27 11:50:59;;;;;;;76.10;10.13;;;23.00;72.50;;;;;;5046269;28;20502;-52
2023/07/27 11:53:26;;;;;;;55.17;8.23;;;23.10;72.20;;;;;;5046684;28;20038;-51
2023/07/27 11:55:52;;;;;;;76.43;9.45;;;23.10;71.80;;;;;;5061561;28;20021;-51
2023/07/27 11:58:18;;;;;;;67.75;10.52;;;23.20;71.80;;;;;;5058346;28;20028;-51
2023/07/27 12:00:49;;;;;;;95.53;11.38;;;23.20;71.80;;;;;;5054201;28;20026;-51
2023/07/27 12:03:15;;;;;;;59.88;9.10;;;23.30;71.60;;;;;;5047941;28;20113;-51
2023/07/27 12:05:41;;;;;;;67.28;10.10;;;23.40;71.20;;;;;;5056724;28;20026;-51
2023/07/27 12:08:06;;;;;;;65.68;9.07;;;23.40;70.90;;;;;;5026253;28;20096;-51
2023/07/27 12:10:32;;;;;;;122.22;13.55;;;23.40;70.30;;;;;;5043570;28;20036;-51
2023/07/27 12:13:01;;;;;;;59.65;8.25;;;23.50;70.40;;;;;;5027633;28;20081;-51
2023/07/27 12:15:28;;;;;;;62.03;8.60;;;23.50;70.10;;;;;;5027796;28;20556;-51
2023/07/27 12:17:55;;;;;;;64.40;7.72;;;23.50;70.20;;;;;;5043573;28;20049;-52
2023/07/27 12:20:21;;;;;;;65.38;8.40;;;23.50;70.10;;;;;;5043442;28;20068;-51
2023/07/27 12:22:47;;;;;;;84.15;11.00;;;23.50;70.40;;;;;;5043762;28;20030;-51
2023/07/27 12:25:12;;;;;;;74.43;9.85;;;23.60;70.40;;;;;;5043380;28;20033;-50
2023/07/27 12:27:38;;;;;;;62.95;8.95;;;23.60;70.70;;;;;;5043399;28;20032;-51
2023/07/27 12:30:04;;;;;;;83.78;11.00;;;23.60;70.50;;;;;;5044022;28;20025;-51
2023/07/27 12:32:30;;;;;;;68.72;9.93;;;23.70;70.50;;;;;;5043442;28;20539;-52
2023/07/27 12:34:55;;;;;;;49.67;9.43;;;23.70;70.50;;;;;;5052762;28;20037;-52
2023/07/27 12:37:21;;;;;;;51.35;8.43;;;23.70;70.40;;;;;;5026237;28;20034;-51